Archival Weather

Yakutsk

Yakutsk, Russia (UEEE)

Report from: Monday, February 6, 2023 12:30 AM JST
Current time: Tuesday, February 27, 2024 8:24 PM JST

Current weather – Weather history – Daily summaries
Weather forecast

Present weatherFog
Temperature-41.0°C (-41.8°F)
Wind chill-50.2°C (-58.4°F)
Dew point-45.0°C (-49.0°F)
Winds 3.9 kts (2 m/s, 4.5 mph) Northwest (310°)
Visibility2624.7 ft. (800 m)
Altimeter30.15 in.Hg (1021 mB)
Precip. events QF 2:37 AM
Relative humidity65 %
Density altitude-7,827 ft. (-2,386 m)
Remarks No significant changes expected in the next two hours
Flight conditions Low Instrument Meteorological Conditions
Raw dataUEEE 051530Z 31002MPS 0800 0500NE R23L/1200N FG NSC M41/M45 Q1021 R23L/490150 NOSIG RMK QFE757
An error has occurred. This application may no longer respond until reloaded. Reload 🗙